sensor_id;sensor_type;location;lat;lon;timestamp;P1;durP1;ratioP1;P2;durP2;ratioP2
2386;SDS011;49473;50.772;8.768;2023-02-11T00:00:54;38.83;;;26.17;;
2386;SDS011;49473;50.772;8.768;2023-02-11T00:03:21;42.10;;;25.90;;
2386;SDS011;49473;50.772;8.768;2023-02-11T00:05:55;34.50;;;24.50;;
2386;SDS011;49473;50.772;8.768;2023-02-11T00:08:23;38.10;;;25.97;;
2386;SDS011;49473;50.772;8.768;2023-02-11T00:10:50;37.73;;;26.67;;
2386;SDS011;49473;50.772;8.768;2023-02-11T00:13:19;37.93;;;27.80;;
2386;SDS011;49473;50.772;8.768;2023-02-11T00:15:46;38.27;;;25.53;;
2386;SDS011;49473;50.772;8.768;2023-02-11T00:18:12;39.67;;;27.13;;
2386;SDS011;49473;50.772;8.768;2023-02-11T00:20:39;37.80;;;27.80;;
2386;SDS011;49473;50.772;8.768;2023-02-11T00:23:07;37.50;;;24.87;;
2386;SDS011;49473;50.772;8.768;2023-02-11T00:25:37;36.73;;;26.90;;
2386;SDS011;49473;50.772;8.768;2023-02-11T00:28:04;38.37;;;26.87;;
2386;SDS011;49473;50.772;8.768;2023-02-11T00:30:32;33.97;;;25.90;;
2386;SDS011;49473;50.772;8.768;2023-02-11T00:32:59;32.17;;;25.07;;
2386;SDS011;49473;50.772;8.768;2023-02-11T00:35:26;36.70;;;26.63;;
2386;SDS011;49473;50.772;8.768;2023-02-11T00:37:53;38.70;;;26.43;;
2386;SDS011;49473;50.772;8.768;2023-02-11T00:40:20;38.20;;;26.37;;
2386;SDS011;49473;50.772;8.768;2023-02-11T00:42:47;38.83;;;25.17;;
2386;SDS011;49473;50.772;8.768;2023-02-11T00:45:14;39.20;;;27.20;;
2386;SDS011;49473;50.772;8.768;2023-02-11T00:47:42;36.87;;;27.70;;
2386;SDS011;49473;50.772;8.768;2023-02-11T00:50:09;38.80;;;26.37;;
2386;SDS011;49473;50.772;8.768;2023-02-11T00:52:35;40.57;;;26.87;;
2386;SDS011;49473;50.772;8.768;2023-02-11T00:55:02;39.00;;;26.67;;
2386;SDS011;49473;50.772;8.768;2023-02-11T00:57:29;41.37;;;27.57;;
2386;SDS011;49473;50.772;8.768;2023-02-11T00:59:56;37.53;;;27.53;;
2386;SDS011;49473;50.772;8.768;2023-02-11T01:02:22;33.83;;;25.10;;
2386;SDS011;49473;50.772;8.768;2023-02-11T01:04:50;35.00;;;25.60;;
2386;SDS011;49473;50.772;8.768;2023-02-11T01:07:17;36.90;;;26.30;;
2386;SDS011;49473;50.772;8.768;2023-02-11T01:09:44;37.60;;;26.30;;
2386;SDS011;49473;50.772;8.768;2023-02-11T01:12:10;37.10;;;26.67;;
2386;SDS011;49473;50.772;8.768;2023-02-11T01:14:37;36.07;;;26.60;;
2386;SDS011;49473;50.772;8.768;2023-02-11T01:17:04;40.43;;;27.10;;
2386;SDS011;49473;50.772;8.768;2023-02-11T01:19:31;40.90;;;26.77;;
2386;SDS011;49473;50.772;8.768;2023-02-11T01:21:59;37.43;;;25.87;;
2386;SDS011;49473;50.772;8.768;2023-02-11T01:24:26;34.33;;;25.27;;
2386;SDS011;49473;50.772;8.768;2023-02-11T01:26:53;36.53;;;25.10;;
2386;SDS011;49473;50.772;8.768;2023-02-11T01:29:20;38.97;;;28.90;;
2386;SDS011;49473;50.772;8.768;2023-02-11T01:31:47;41.40;;;27.67;;
2386;SDS011;49473;50.772;8.768;2023-02-11T01:34:14;34.30;;;25.13;;
2386;SDS011;49473;50.772;8.768;2023-02-11T01:36:41;34.60;;;25.77;;
2386;SDS011;49473;50.772;8.768;2023-02-11T01:39:09;39.53;;;27.27;;
2386;SDS011;49473;50.772;8.768;2023-02-11T01:41:35;35.30;;;26.23;;
2386;SDS011;49473;50.772;8.768;2023-02-11T01:44:22;37.03;;;25.57;;
2386;SDS011;49473;50.772;8.768;2023-02-11T01:46:51;35.90;;;26.43;;
2386;SDS011;49473;50.772;8.768;2023-02-11T01:49:19;36.40;;;27.40;;
2386;SDS011;49473;50.772;8.768;2023-02-11T01:51:50;36.30;;;26.17;;
2386;SDS011;49473;50.772;8.768;2023-02-11T01:54:25;36.93;;;25.40;;
2386;SDS011;49473;50.772;8.768;2023-02-11T01:57:15;37.67;;;25.80;;
2386;SDS011;49473;50.772;8.768;2023-02-11T01:59:55;35.87;;;25.57;;
2386;SDS011;49473;50.772;8.768;2023-02-11T02:02:30;38.20;;;25.47;;
2386;SDS011;49473;50.772;8.768;2023-02-11T02:05:03;34.27;;;25.13;;
2386;SDS011;49473;50.772;8.768;2023-02-11T02:07:35;37.80;;;25.57;;
2386;SDS011;49473;50.772;8.768;2023-02-11T02:10:10;34.47;;;24.33;;
2386;SDS011;49473;50.772;8.768;2023-02-11T02:12:41;33.67;;;25.80;;
2386;SDS011;49473;50.772;8.768;2023-02-11T02:15:21;35.10;;;26.63;;
2386;SDS011;49473;50.772;8.768;2023-02-11T02:20:51;36.60;;;25.07;;
2386;SDS011;49473;50.772;8.768;2023-02-11T02:23:55;32.53;;;24.13;;
2386;SDS011;49473;50.772;8.768;2023-02-11T02:26:49;34.60;;;24.83;;
2386;SDS011;49473;50.772;8.768;2023-02-11T02:35:26;32.57;;;24.70;;
2386;SDS011;49473;50.772;8.768;2023-02-11T02:38:00;33.40;;;25.43;;
2386;SDS011;49473;50.772;8.768;2023-02-11T02:40:39;36.53;;;24.83;;
2386;SDS011;49473;50.772;8.768;2023-02-11T02:43:10;35.77;;;26.07;;
2386;SDS011;49473;50.772;8.768;2023-02-11T02:45:38;36.03;;;26.53;;
2386;SDS011;49473;50.772;8.768;2023-02-11T02:48:20;33.20;;;25.70;;
2386;SDS011;49473;50.772;8.768;2023-02-11T02:50:49;32.77;;;25.97;;
2386;SDS011;49473;50.772;8.768;2023-02-11T02:53:25;30.73;;;24.60;;
2386;SDS011;49473;50.772;8.768;2023-02-11T02:56:05;41.27;;;26.93;;
2386;SDS011;49473;50.772;8.768;2023-02-11T02:58:51;35.63;;;25.60;;
2386;SDS011;49473;50.772;8.768;2023-02-11T03:01:27;35.83;;;25.03;;
2386;SDS011;49473;50.772;8.768;2023-02-11T03:04:04;35.10;;;25.40;;
2386;SDS011;49473;50.772;8.768;2023-02-11T03:06:41;34.07;;;26.13;;
2386;SDS011;49473;50.772;8.768;2023-02-11T03:09:15;34.70;;;25.60;;
2386;SDS011;49473;50.772;8.768;2023-02-11T03:11:47;36.13;;;26.63;;
2386;SDS011;49473;50.772;8.768;2023-02-11T03:14:14;35.93;;;26.43;;
2386;SDS011;49473;50.772;8.768;2023-02-11T03:16:44;36.23;;;25.83;;
2386;SDS011;49473;50.772;8.768;2023-02-11T03:19:16;35.70;;;25.77;;
2386;SDS011;49473;50.772;8.768;2023-02-11T03:21:45;37.13;;;25.80;;
2386;SDS011;49473;50.772;8.768;2023-02-11T03:24:14;34.17;;;25.90;;
2386;SDS011;49473;50.772;8.768;2023-02-11T03:26:47;34.23;;;24.23;;
2386;SDS011;49473;50.772;8.768;2023-02-11T03:29:17;36.23;;;25.10;;
2386;SDS011;49473;50.772;8.768;2023-02-11T03:31:57;39.07;;;26.80;;
2386;SDS011;49473;50.772;8.768;2023-02-11T03:34:30;34.30;;;25.00;;
2386;SDS011;49473;50.772;8.768;2023-02-11T03:37:04;35.00;;;25.80;;
2386;SDS011;49473;50.772;8.768;2023-02-11T03:39:33;34.80;;;25.20;;
2386;SDS011;49473;50.772;8.768;2023-02-11T03:42:03;32.20;;;26.23;;
2386;SDS011;49473;50.772;8.768;2023-02-11T03:44:35;31.63;;;25.50;;
2386;SDS011;49473;50.772;8.768;2023-02-11T03:47:06;33.53;;;25.33;;
2386;SDS011;49473;50.772;8.768;2023-02-11T03:49:37;34.83;;;26.20;;
2386;SDS011;49473;50.772;8.768;2023-02-11T03:52:05;34.90;;;24.97;;
2386;SDS011;49473;50.772;8.768;2023-02-11T03:54:35;34.03;;;24.33;;
2386;SDS011;49473;50.772;8.768;2023-02-11T03:57:05;32.33;;;23.33;;
2386;SDS011;49473;50.772;8.768;2023-02-11T04:02:15;34.93;;;25.07;;
2386;SDS011;49473;50.772;8.768;2023-02-11T04:04:43;35.93;;;25.20;;
2386;SDS011;49473;50.772;8.768;2023-02-11T04:07:10;35.43;;;24.60;;
2386;SDS011;49473;50.772;8.768;2023-02-11T04:09:37;33.27;;;23.50;;
2386;SDS011;49473;50.772;8.768;2023-02-11T04:12:04;35.03;;;25.80;;
2386;SDS011;49473;50.772;8.768;2023-02-11T04:14:31;35.47;;;24.93;;
2386;SDS011;49473;50.772;8.768;2023-02-11T04:16:58;35.77;;;24.23;;
2386;SDS011;49473;50.772;8.768;2023-02-11T04:19:25;36.17;;;25.53;;
2386;SDS011;49473;50.772;8.768;2023-02-11T04:21:53;34.23;;;24.33;;
2386;SDS011;49473;50.772;8.768;2023-02-11T04:24:19;28.97;;;23.50;;
2386;SDS011;49473;50.772;8.768;2023-02-11T04:26:46;32.90;;;24.97;;
2386;SDS011;49473;50.772;8.768;2023-02-11T04:29:13;36.27;;;24.70;;
2386;SDS011;49473;50.772;8.768;2023-02-11T04:31:40;33.90;;;25.20;;
2386;SDS011;49473;50.772;8.768;2023-02-11T04:34:06;34.10;;;24.00;;
2386;SDS011;49473;50.772;8.768;2023-02-11T04:36:33;41.27;;;25.83;;
2386;SDS011;49473;50.772;8.768;2023-02-11T04:39:01;31.43;;;24.20;;
2386;SDS011;49473;50.772;8.768;2023-02-11T04:41:28;34.53;;;26.07;;
2386;SDS011;49473;50.772;8.768;2023-02-11T04:43:55;31.90;;;25.80;;
2386;SDS011;49473;50.772;8.768;2023-02-11T04:46:21;37.10;;;27.40;;
2386;SDS011;49473;50.772;8.768;2023-02-11T04:48:48;35.50;;;26.13;;
2386;SDS011;49473;50.772;8.768;2023-02-11T04:51:15;32.83;;;24.47;;
2386;SDS011;49473;50.772;8.768;2023-02-11T04:53:42;31.93;;;26.10;;
2386;SDS011;49473;50.772;8.768;2023-02-11T04:56:10;37.83;;;27.20;;
2386;SDS011;49473;50.772;8.768;2023-02-11T04:58:37;35.50;;;25.10;;
2386;SDS011;49473;50.772;8.768;2023-02-11T05:01:04;38.90;;;25.37;;
2386;SDS011;49473;50.772;8.768;2023-02-11T05:03:32;34.83;;;25.20;;
2386;SDS011;49473;50.772;8.768;2023-02-11T05:05:58;33.27;;;25.27;;
2386;SDS011;49473;50.772;8.768;2023-02-11T05:08:25;36.63;;;24.57;;
2386;SDS011;49473;50.772;8.768;2023-02-11T05:10:52;32.17;;;24.20;;
2386;SDS011;49473;50.772;8.768;2023-02-11T05:13:20;36.83;;;25.43;;
2386;SDS011;49473;50.772;8.768;2023-02-11T05:15:47;35.30;;;23.37;;
2386;SDS011;49473;50.772;8.768;2023-02-11T05:18:14;34.63;;;24.43;;
2386;SDS011;49473;50.772;8.768;2023-02-11T05:20:41;37.60;;;26.40;;
2386;SDS011;49473;50.772;8.768;2023-02-11T05:23:08;34.57;;;26.50;;
2386;SDS011;49473;50.772;8.768;2023-02-11T05:25:35;37.23;;;27.93;;
2386;SDS011;49473;50.772;8.768;2023-02-11T05:28:04;36.07;;;27.70;;
2386;SDS011;49473;50.772;8.768;2023-02-11T05:30:33;41.73;;;29.67;;
2386;SDS011;49473;50.772;8.768;2023-02-11T05:32:59;34.13;;;26.50;;
2386;SDS011;49473;50.772;8.768;2023-02-11T05:35:26;36.10;;;25.40;;
2386;SDS011;49473;50.772;8.768;2023-02-11T05:37:56;37.33;;;24.60;;
2386;SDS011;49473;50.772;8.768;2023-02-11T05:40:23;36.20;;;26.40;;
2386;SDS011;49473;50.772;8.768;2023-02-11T05:42:50;29.37;;;24.97;;
2386;SDS011;49473;50.772;8.768;2023-02-11T05:45:16;33.77;;;24.37;;
2386;SDS011;49473;50.772;8.768;2023-02-11T05:47:44;33.60;;;25.87;;
2386;SDS011;49473;50.772;8.768;2023-02-11T05:50:11;35.73;;;24.97;;
2386;SDS011;49473;50.772;8.768;2023-02-11T05:52:38;33.53;;;23.83;;
2386;SDS011;49473;50.772;8.768;2023-02-11T05:55:05;34.27;;;24.07;;
2386;SDS011;49473;50.772;8.768;2023-02-11T05:57:32;38.83;;;26.23;;
2386;SDS011;49473;50.772;8.768;2023-02-11T05:59:59;35.40;;;25.87;;
2386;SDS011;49473;50.772;8.768;2023-02-11T06:02:25;35.03;;;25.50;;
2386;SDS011;49473;50.772;8.768;2023-02-11T06:04:53;30.73;;;24.83;;
2386;SDS011;49473;50.772;8.768;2023-02-11T06:07:20;28.80;;;23.23;;
2386;SDS011;49473;50.772;8.768;2023-02-11T06:09:47;41.70;;;29.07;;
2386;SDS011;49473;50.772;8.768;2023-02-11T06:12:14;34.07;;;25.37;;
2386;SDS011;49473;50.772;8.768;2023-02-11T06:14:41;35.13;;;24.73;;
2386;SDS011;49473;50.772;8.768;2023-02-11T06:17:07;32.30;;;25.50;;
2386;SDS011;49473;50.772;8.768;2023-02-11T06:19:34;35.63;;;26.73;;
2386;SDS011;49473;50.772;8.768;2023-02-11T06:22:02;31.90;;;25.03;;
2386;SDS011;49473;50.772;8.768;2023-02-11T06:24:29;39.93;;;28.03;;
2386;SDS011;49473;50.772;8.768;2023-02-11T06:26:56;34.57;;;25.10;;
2386;SDS011;49473;50.772;8.768;2023-02-11T06:29:22;33.37;;;24.80;;
2386;SDS011;49473;50.772;8.768;2023-02-11T06:31:49;33.60;;;25.70;;
2386;SDS011;49473;50.772;8.768;2023-02-11T06:34:16;36.20;;;26.13;;
2386;SDS011;49473;50.772;8.768;2023-02-11T06:36:43;36.87;;;26.20;;
2386;SDS011;49473;50.772;8.768;2023-02-11T06:39:11;34.03;;;25.33;;
2386;SDS011;49473;50.772;8.768;2023-02-11T06:41:38;33.97;;;26.00;;
2386;SDS011;49473;50.772;8.768;2023-02-11T06:44:06;36.57;;;27.03;;
2386;SDS011;49473;50.772;8.768;2023-02-11T06:46:33;33.43;;;26.90;;
2386;SDS011;49473;50.772;8.768;2023-02-11T06:48:59;37.20;;;26.47;;
2386;SDS011;49473;50.772;8.768;2023-02-11T06:51:26;35.73;;;26.00;;
2386;SDS011;49473;50.772;8.768;2023-02-11T06:53:53;35.27;;;27.10;;
2386;SDS011;49473;50.772;8.768;2023-02-11T06:56:22;35.03;;;24.93;;
2386;SDS011;49473;50.772;8.768;2023-02-11T06:58:51;35.77;;;28.10;;
2386;SDS011;49473;50.772;8.768;2023-02-11T07:01:19;34.60;;;26.90;;
2386;SDS011;49473;50.772;8.768;2023-02-11T07:03:46;39.50;;;28.90;;
2386;SDS011;49473;50.772;8.768;2023-02-11T07:06:14;35.80;;;26.80;;
2386;SDS011;49473;50.772;8.768;2023-02-11T07:08:42;34.80;;;28.50;;
2386;SDS011;49473;50.772;8.768;2023-02-11T07:11:10;35.00;;;26.30;;
2386;SDS011;49473;50.772;8.768;2023-02-11T07:13:39;34.83;;;26.87;;
2386;SDS011;49473;50.772;8.768;2023-02-11T07:16:07;36.00;;;26.37;;
2386;SDS011;49473;50.772;8.768;2023-02-11T07:18:35;36.50;;;26.57;;
2386;SDS011;49473;50.772;8.768;2023-02-11T07:21:03;36.00;;;27.13;;
2386;SDS011;49473;50.772;8.768;2023-02-11T07:23:30;33.07;;;25.33;;
2386;SDS011;49473;50.772;8.768;2023-02-11T07:25:57;38.07;;;28.13;;
2386;SDS011;49473;50.772;8.768;2023-02-11T07:28:28;41.83;;;28.80;;
2386;SDS011;49473;50.772;8.768;2023-02-11T07:30:56;37.90;;;28.40;;
2386;SDS011;49473;50.772;8.768;2023-02-11T07:33:23;38.20;;;26.97;;
2386;SDS011;49473;50.772;8.768;2023-02-11T07:35:50;40.43;;;28.10;;
2386;SDS011;49473;50.772;8.768;2023-02-11T07:38:17;39.40;;;27.80;;
2386;SDS011;49473;50.772;8.768;2023-02-11T07:40:43;35.70;;;26.27;;
2386;SDS011;49473;50.772;8.768;2023-02-11T07:43:10;34.67;;;26.60;;
2386;SDS011;49473;50.772;8.768;2023-02-11T07:45:37;36.73;;;26.80;;
2386;SDS011;49473;50.772;8.768;2023-02-11T07:48:05;37.40;;;26.07;;
2386;SDS011;49473;50.772;8.768;2023-02-11T07:50:32;34.23;;;25.43;;
2386;SDS011;49473;50.772;8.768;2023-02-11T07:52:59;39.17;;;25.97;;
2386;SDS011;49473;50.772;8.768;2023-02-11T07:55:25;32.00;;;24.73;;
2386;SDS011;49473;50.772;8.768;2023-02-11T07:57:52;38.20;;;25.97;;
2386;SDS011;49473;50.772;8.768;2023-02-11T08:00:19;29.90;;;24.13;;
2386;SDS011;49473;50.772;8.768;2023-02-11T08:02:46;32.30;;;26.50;;
2386;SDS011;49473;50.772;8.768;2023-02-11T08:05:14;44.53;;;31.20;;
2386;SDS011;49473;50.772;8.768;2023-02-11T08:07:43;41.63;;;30.03;;
2386;SDS011;49473;50.772;8.768;2023-02-11T08:10:10;33.03;;;26.50;;
2386;SDS011;49473;50.772;8.768;2023-02-11T08:12:36;31.20;;;24.77;;
2386;SDS011;49473;50.772;8.768;2023-02-11T08:15:03;37.30;;;24.10;;
2386;SDS011;49473;50.772;8.768;2023-02-11T08:17:30;32.07;;;24.90;;
2386;SDS011;49473;50.772;8.768;2023-02-11T08:19:57;30.30;;;25.00;;
2386;SDS011;49473;50.772;8.768;2023-02-11T08:22:25;30.17;;;22.73;;
2386;SDS011;49473;50.772;8.768;2023-02-11T08:24:52;30.83;;;23.47;;
2386;SDS011;49473;50.772;8.768;2023-02-11T08:27:18;32.23;;;23.47;;
2386;SDS011;49473;50.772;8.768;2023-02-11T08:29:45;30.53;;;24.77;;
2386;SDS011;49473;50.772;8.768;2023-02-11T08:32:12;34.73;;;26.03;;
2386;SDS011;49473;50.772;8.768;2023-02-11T08:34:38;36.17;;;25.07;;
2386;SDS011;49473;50.772;8.768;2023-02-11T08:37:05;33.43;;;24.70;;
2386;SDS011;49473;50.772;8.768;2023-02-11T08:39:34;34.57;;;25.40;;
2386;SDS011;49473;50.772;8.768;2023-02-11T08:42:01;33.83;;;25.70;;
2386;SDS011;49473;50.772;8.768;2023-02-11T08:44:28;39.13;;;25.90;;
2386;SDS011;49473;50.772;8.768;2023-02-11T08:46:55;36.20;;;25.80;;
2386;SDS011;49473;50.772;8.768;2023-02-11T08:49:22;32.40;;;26.63;;
2386;SDS011;49473;50.772;8.768;2023-02-11T08:51:48;37.33;;;27.60;;
2386;SDS011;49473;50.772;8.768;2023-02-11T08:54:15;34.90;;;25.20;;
2386;SDS011;49473;50.772;8.768;2023-02-11T08:56:44;37.40;;;27.50;;
2386;SDS011;49473;50.772;8.768;2023-02-11T08:59:11;35.67;;;27.37;;
2386;SDS011;49473;50.772;8.768;2023-02-11T09:01:39;34.37;;;26.93;;
2386;SDS011;49473;50.772;8.768;2023-02-11T09:04:06;34.77;;;25.87;;
2386;SDS011;49473;50.772;8.768;2023-02-11T09:06:32;37.20;;;27.50;;
2386;SDS011;49473;50.772;8.768;2023-02-11T09:08:59;44.03;;;32.40;;
2386;SDS011;49473;50.772;8.768;2023-02-11T09:11:26;35.13;;;27.30;;
2386;SDS011;49473;50.772;8.768;2023-02-11T09:13:57;37.03;;;27.87;;
2386;SDS011;49473;50.772;8.768;2023-02-11T09:16:25;32.80;;;25.33;;
2386;SDS011;49473;50.772;8.768;2023-02-11T09:18:55;35.70;;;25.97;;
2386;SDS011;49473;50.772;8.768;2023-02-11T09:21:22;29.87;;;23.23;;
2386;SDS011;49473;50.772;8.768;2023-02-11T09:23:49;31.03;;;23.93;;
2386;SDS011;49473;50.772;8.768;2023-02-11T09:26:17;34.13;;;25.20;;
2386;SDS011;49473;50.772;8.768;2023-02-11T09:28:46;38.30;;;26.00;;
2386;SDS011;49473;50.772;8.768;2023-02-11T09:31:15;35.57;;;26.13;;
2386;SDS011;49473;50.772;8.768;2023-02-11T09:33:44;34.73;;;24.53;;
2386;SDS011;49473;50.772;8.768;2023-02-11T09:36:14;35.57;;;25.33;;
2386;SDS011;49473;50.772;8.768;2023-02-11T09:38:42;37.90;;;27.43;;
2386;SDS011;49473;50.772;8.768;2023-02-11T09:44:05;30.80;;;24.10;;
2386;SDS011;49473;50.772;8.768;2023-02-11T09:46:35;34.33;;;25.73;;
2386;SDS011;49473;50.772;8.768;2023-02-11T09:49:09;38.13;;;27.13;;
2386;SDS011;49473;50.772;8.768;2023-02-11T09:51:45;32.67;;;25.20;;
2386;SDS011;49473;50.772;8.768;2023-02-11T09:54:17;32.83;;;25.60;;
2386;SDS011;49473;50.772;8.768;2023-02-11T09:56:51;30.83;;;24.00;;
2386;SDS011;49473;50.772;8.768;2023-02-11T09:59:17;34.37;;;25.10;;
2386;SDS011;49473;50.772;8.768;2023-02-11T10:01:46;33.43;;;24.80;;
2386;SDS011;49473;50.772;8.768;2023-02-11T10:04:20;35.50;;;25.43;;
2386;SDS011;49473;50.772;8.768;2023-02-11T10:06:59;27.70;;;24.00;;
2386;SDS011;49473;50.772;8.768;2023-02-11T10:09:35;30.77;;;23.87;;
2386;SDS011;49473;50.772;8.768;2023-02-11T10:12:27;33.90;;;24.73;;
2386;SDS011;49473;50.772;8.768;2023-02-11T10:15:12;34.00;;;25.80;;
2386;SDS011;49473;50.772;8.768;2023-02-11T10:17:49;31.63;;;24.27;;
2386;SDS011;49473;50.772;8.768;2023-02-11T10:20:29;31.60;;;24.20;;
2386;SDS011;49473;50.772;8.768;2023-02-11T10:22:59;29.17;;;23.67;;
2386;SDS011;49473;50.772;8.768;2023-02-11T10:25:28;29.83;;;24.13;;
2386;SDS011;49473;50.772;8.768;2023-02-11T10:28:00;29.50;;;23.07;;
2386;SDS011;49473;50.772;8.768;2023-02-11T10:30:36;28.83;;;21.93;;
2386;SDS011;49473;50.772;8.768;2023-02-11T10:33:11;32.80;;;24.30;;
2386;SDS011;49473;50.772;8.768;2023-02-11T10:35:44;31.67;;;23.37;;
2386;SDS011;49473;50.772;8.768;2023-02-11T10:38:11;27.90;;;22.30;;
2386;SDS011;49473;50.772;8.768;2023-02-11T10:40:38;32.30;;;23.50;;
2386;SDS011;49473;50.772;8.768;2023-02-11T10:43:05;31.50;;;24.07;;
2386;SDS011;49473;50.772;8.768;2023-02-11T10:45:37;30.87;;;23.47;;
2386;SDS011;49473;50.772;8.768;2023-02-11T10:48:36;33.27;;;25.03;;
2386;SDS011;49473;50.772;8.768;2023-02-11T10:51:06;30.00;;;24.50;;
2386;SDS011;49473;50.772;8.768;2023-02-11T10:53:39;30.83;;;23.27;;
2386;SDS011;49473;50.772;8.768;2023-02-11T10:56:06;27.37;;;22.87;;
2386;SDS011;49473;50.772;8.768;2023-02-11T10:58:39;30.93;;;24.13;;
2386;SDS011;49473;50.772;8.768;2023-02-11T11:01:09;33.63;;;23.90;;
2386;SDS011;49473;50.772;8.768;2023-02-11T11:03:38;30.80;;;23.80;;
2386;SDS011;49473;50.772;8.768;2023-02-11T11:06:11;30.27;;;23.70;;
2386;SDS011;49473;50.772;8.768;2023-02-11T11:08:41;30.17;;;22.70;;
2386;SDS011;49473;50.772;8.768;2023-02-11T11:11:11;35.70;;;24.23;;
2386;SDS011;49473;50.772;8.768;2023-02-11T11:13:40;31.07;;;24.97;;
2386;SDS011;49473;50.772;8.768;2023-02-11T11:16:21;31.17;;;24.20;;
2386;SDS011;49473;50.772;8.768;2023-02-11T11:18:51;33.57;;;23.93;;
2386;SDS011;49473;50.772;8.768;2023-02-11T11:21:21;30.87;;;23.67;;
2386;SDS011;49473;50.772;8.768;2023-02-11T11:23:53;35.77;;;25.87;;
2386;SDS011;49473;50.772;8.768;2023-02-11T11:26:21;31.60;;;22.97;;
2386;SDS011;49473;50.772;8.768;2023-02-11T11:28:50;29.70;;;23.60;;
2386;SDS011;49473;50.772;8.768;2023-02-11T11:31:27;27.17;;;21.97;;
2386;SDS011;49473;50.772;8.768;2023-02-11T11:33:58;28.67;;;22.67;;
2386;SDS011;49473;50.772;8.768;2023-02-11T11:36:31;27.83;;;23.13;;
2386;SDS011;49473;50.772;8.768;2023-02-11T11:39:01;32.60;;;24.07;;
2386;SDS011;49473;50.772;8.768;2023-02-11T11:41:30;29.47;;;24.00;;
2386;SDS011;49473;50.772;8.768;2023-02-11T11:44:00;29.10;;;23.00;;
2386;SDS011;49473;50.772;8.768;2023-02-11T11:46:31;28.67;;;23.30;;
2386;SDS011;49473;50.772;8.768;2023-02-11T11:49:15;32.50;;;25.13;;
2386;SDS011;49473;50.772;8.768;2023-02-11T11:51:50;29.10;;;22.37;;
2386;SDS011;49473;50.772;8.768;2023-02-11T11:54:25;28.77;;;23.80;;
2386;SDS011;49473;50.772;8.768;2023-02-11T11:56:54;32.00;;;24.70;;
2386;SDS011;49473;50.772;8.768;2023-02-11T11:59:25;28.57;;;23.60;;
2386;SDS011;49473;50.772;8.768;2023-02-11T12:02:00;35.47;;;25.17;;
2386;SDS011;49473;50.772;8.768;2023-02-11T12:04:48;33.07;;;24.77;;
2386;SDS011;49473;50.772;8.768;2023-02-11T12:07:26;30.53;;;24.07;;
2386;SDS011;49473;50.772;8.768;2023-02-11T12:10:15;27.83;;;22.63;;
2386;SDS011;49473;50.772;8.768;2023-02-11T12:12:54;31.70;;;25.13;;
2386;SDS011;49473;50.772;8.768;2023-02-11T12:15:30;28.87;;;23.50;;
2386;SDS011;49473;50.772;8.768;2023-02-11T12:18:06;30.33;;;23.03;;
2386;SDS011;49473;50.772;8.768;2023-02-11T12:20:46;45.20;;;32.87;;
2386;SDS011;49473;50.772;8.768;2023-02-11T12:23:29;28.63;;;22.60;;
2386;SDS011;49473;50.772;8.768;2023-02-11T12:26:05;38.50;;;27.67;;
2386;SDS011;49473;50.772;8.768;2023-02-11T12:28:42;28.40;;;22.63;;
2386;SDS011;49473;50.772;8.768;2023-02-11T12:31:26;48.43;;;37.47;;
2386;SDS011;49473;50.772;8.768;2023-02-11T12:34:13;49.80;;;40.10;;
2386;SDS011;49473;50.772;8.768;2023-02-11T12:36:59;33.43;;;29.07;;
2386;SDS011;49473;50.772;8.768;2023-02-11T12:39:32;27.43;;;22.07;;
2386;SDS011;49473;50.772;8.768;2023-02-11T12:42:13;32.70;;;27.20;;
2386;SDS011;49473;50.772;8.768;2023-02-11T12:45:20;36.90;;;26.50;;
2386;SDS011;49473;50.772;8.768;2023-02-11T12:47:59;26.43;;;21.70;;
2386;SDS011;49473;50.772;8.768;2023-02-11T12:50:36;33.43;;;25.80;;
2386;SDS011;49473;50.772;8.768;2023-02-11T12:53:19;30.83;;;23.73;;
2386;SDS011;49473;50.772;8.768;2023-02-11T12:55:58;36.20;;;27.10;;
2386;SDS011;49473;50.772;8.768;2023-02-11T12:58:30;36.23;;;24.30;;
2386;SDS011;49473;50.772;8.768;2023-02-11T13:01:01;29.80;;;23.10;;
2386;SDS011;49473;50.772;8.768;2023-02-11T13:03:34;31.83;;;23.90;;
2386;SDS011;49473;50.772;8.768;2023-02-11T13:06:04;32.97;;;24.50;;
2386;SDS011;49473;50.772;8.768;2023-02-11T13:08:36;28.57;;;22.40;;
2386;SDS011;49473;50.772;8.768;2023-02-11T13:11:08;35.97;;;27.17;;
2386;SDS011;49473;50.772;8.768;2023-02-11T13:13:41;31.23;;;23.90;;
2386;SDS011;49473;50.772;8.768;2023-02-11T13:16:16;31.33;;;22.73;;
2386;SDS011;49473;50.772;8.768;2023-02-11T13:18:48;27.57;;;21.60;;
2386;SDS011;49473;50.772;8.768;2023-02-11T13:21:24;27.73;;;20.90;;
2386;SDS011;49473;50.772;8.768;2023-02-11T13:24:03;27.57;;;21.10;;
2386;SDS011;49473;50.772;8.768;2023-02-11T13:26:40;24.13;;;20.67;;
2386;SDS011;49473;50.772;8.768;2023-02-11T13:29:15;28.63;;;22.13;;
2386;SDS011;49473;50.772;8.768;2023-02-11T13:31:52;26.30;;;21.77;;
2386;SDS011;49473;50.772;8.768;2023-02-11T13:34:23;25.87;;;20.23;;
2386;SDS011;49473;50.772;8.768;2023-02-11T13:36:53;22.90;;;20.47;;
2386;SDS011;49473;50.772;8.768;2023-02-11T13:39:22;22.70;;;19.03;;
2386;SDS011;49473;50.772;8.768;2023-02-11T13:41:49;24.37;;;19.73;;
2386;SDS011;49473;50.772;8.768;2023-02-11T13:44:26;24.00;;;19.80;;
2386;SDS011;49473;50.772;8.768;2023-02-11T13:46:55;22.30;;;19.60;;
2386;SDS011;49473;50.772;8.768;2023-02-11T13:49:24;25.00;;;19.70;;
2386;SDS011;49473;50.772;8.768;2023-02-11T13:51:54;25.33;;;19.47;;
2386;SDS011;49473;50.772;8.768;2023-02-11T13:54:26;24.63;;;19.63;;
2386;SDS011;49473;50.772;8.768;2023-02-11T13:57:20;25.77;;;20.23;;
2386;SDS011;49473;50.772;8.768;2023-02-11T13:59:52;25.90;;;19.87;;
2386;SDS011;49473;50.772;8.768;2023-02-11T14:02:20;24.10;;;19.07;;
2386;SDS011;49473;50.772;8.768;2023-02-11T14:05:23;24.87;;;19.40;;
2386;SDS011;49473;50.772;8.768;2023-02-11T14:08:13;27.93;;;19.90;;
2386;SDS011;49473;50.772;8.768;2023-02-11T14:11:02;25.30;;;18.97;;
2386;SDS011;49473;50.772;8.768;2023-02-11T14:13:32;26.37;;;19.50;;
2386;SDS011;49473;50.772;8.768;2023-02-11T14:16:06;27.73;;;20.13;;
2386;SDS011;49473;50.772;8.768;2023-02-11T14:18:35;25.53;;;20.27;;
2386;SDS011;49473;50.772;8.768;2023-02-11T14:21:08;27.70;;;20.27;;
2386;SDS011;49473;50.772;8.768;2023-02-11T14:23:37;25.17;;;20.07;;
2386;SDS011;49473;50.772;8.768;2023-02-11T14:29:08;24.60;;;18.80;;
2386;SDS011;49473;50.772;8.768;2023-02-11T14:31:42;25.37;;;19.53;;
2386;SDS011;49473;50.772;8.768;2023-02-11T14:34:27;25.30;;;19.60;;
2386;SDS011;49473;50.772;8.768;2023-02-11T14:37:12;22.20;;;18.50;;
2386;SDS011;49473;50.772;8.768;2023-02-11T14:39:49;24.37;;;18.93;;
2386;SDS011;49473;50.772;8.768;2023-02-11T14:42:28;25.13;;;19.70;;
2386;SDS011;49473;50.772;8.768;2023-02-11T14:44:57;25.73;;;19.40;;
2386;SDS011;49473;50.772;8.768;2023-02-11T14:47:30;22.67;;;18.80;;
2386;SDS011;49473;50.772;8.768;2023-02-11T14:50:09;34.60;;;23.00;;
2386;SDS011;49473;50.772;8.768;2023-02-11T14:52:42;27.53;;;20.30;;
2386;SDS011;49473;50.772;8.768;2023-02-11T14:55:13;26.70;;;19.60;;
2386;SDS011;49473;50.772;8.768;2023-02-11T15:00:45;23.23;;;18.47;;
2386;SDS011;49473;50.772;8.768;2023-02-11T15:03:26;27.07;;;19.20;;
2386;SDS011;49473;50.772;8.768;2023-02-11T15:05:59;22.73;;;18.20;;
2386;SDS011;49473;50.772;8.768;2023-02-11T15:08:29;31.03;;;21.70;;
2386;SDS011;49473;50.772;8.768;2023-02-11T15:10:58;28.43;;;20.30;;
2386;SDS011;49473;50.772;8.768;2023-02-11T15:13:28;34.90;;;22.83;;
2386;SDS011;49473;50.772;8.768;2023-02-11T15:15:57;33.60;;;22.90;;